createdAt,value
2022-11-19T00:02:10.196Z,16.93
2022-11-19T00:04:38.767Z,12.77
2022-11-19T00:07:07.536Z,13.90
2022-11-19T00:09:37.452Z,13.43
2022-11-19T00:12:24.030Z,14.63
2022-11-19T00:14:52.384Z,12.80
2022-11-19T00:17:20.823Z,11.77
2022-11-19T00:19:49.147Z,11.07
2022-11-19T00:22:17.590Z,11.77
2022-11-19T00:24:47.493Z,11.10
2022-11-19T00:27:15.927Z,12.77
2022-11-19T00:29:44.320Z,12.57
2022-11-19T00:32:12.763Z,12.20
2022-11-19T00:34:41.413Z,12.27
2022-11-19T00:37:09.824Z,14.73
2022-11-19T00:39:38.467Z,12.90
2022-11-19T00:42:08.348Z,12.30
2022-11-19T00:44:37.563Z,12.97
2022-11-19T00:47:06.508Z,12.60
2022-11-19T00:49:34.845Z,13.23
2022-11-19T00:52:03.268Z,12.53
2022-11-19T00:54:31.656Z,12.37
2022-11-19T00:57:00.143Z,13.47
2022-11-19T00:59:30.427Z,13.13
2022-11-19T01:01:58.892Z,13.67
2022-11-19T01:04:27.607Z,13.00
2022-11-19T01:06:56.349Z,12.73
2022-11-19T01:09:25.047Z,12.97
2022-11-19T01:11:53.486Z,12.13
2022-11-19T01:14:21.937Z,13.13
2022-11-19T01:16:51.759Z,13.07
2022-11-19T01:19:20.673Z,13.00
2022-11-19T01:21:49.321Z,12.23
2022-11-19T01:24:17.715Z,12.00
2022-11-19T01:26:46.368Z,13.03
2022-11-19T01:29:15.097Z,12.17
2022-11-19T01:31:43.521Z,11.80
2022-11-19T01:34:13.347Z,12.63
2022-11-19T01:36:41.690Z,12.17
2022-11-19T01:39:10.104Z,12.17
2022-11-19T01:41:39.579Z,12.63
2022-11-19T01:44:09.972Z,11.97
2022-11-19T01:46:40.116Z,11.20
2022-11-19T01:49:14.710Z,11.57
2022-11-19T01:51:50.315Z,11.20
2022-11-19T01:54:26.577Z,11.40
2022-11-19T01:56:56.189Z,11.47
2022-11-19T01:59:26.530Z,11.47
2022-11-19T02:01:55.234Z,11.77
2022-11-19T02:04:27.107Z,11.27
2022-11-19T02:06:56.474Z,11.47
2022-11-19T02:09:28.012Z,10.03
2022-11-19T02:12:24.923Z,10.70
2022-11-19T02:15:15.207Z,10.17
2022-11-19T02:18:06.815Z,10.53
2022-11-19T02:20:45.882Z,9.90
2022-11-19T02:23:46.727Z,10.70
2022-11-19T02:26:46.446Z,10.87
2022-11-19T02:29:27.185Z,10.13
2022-11-19T02:32:02.192Z,9.37
2022-11-19T02:34:33.810Z,10.03
2022-11-19T02:37:06.773Z,9.37
2022-11-19T02:39:41.035Z,10.13
2022-11-19T02:42:17.539Z,10.00
2022-11-19T02:45:02.732Z,10.13
2022-11-19T02:47:37.848Z,10.93
2022-11-19T02:50:11.994Z,10.67
2022-11-19T02:52:41.776Z,10.73
2022-11-19T02:55:13.655Z,10.73
2022-11-19T02:57:44.076Z,10.40
2022-11-19T03:00:31.548Z,10.90
2022-11-19T03:03:25.238Z,10.53
2022-11-19T03:05:59.458Z,10.77
2022-11-19T03:08:29.050Z,10.43
2022-11-19T03:11:08.934Z,11.00
2022-11-19T03:14:06.131Z,10.40
2022-11-19T03:16:43.594Z,10.87
2022-11-19T03:19:38.830Z,10.90
2022-11-19T03:22:14.241Z,10.10
2022-11-19T03:24:46.807Z,9.83
2022-11-19T03:27:21.951Z,9.83
2022-11-19T03:29:55.677Z,9.60
2022-11-19T03:32:30.944Z,10.13
2022-11-19T03:35:05.845Z,9.57
2022-11-19T03:37:37.952Z,9.93
2022-11-19T03:40:10.524Z,9.13
2022-11-19T03:42:40.713Z,8.57
2022-11-19T03:45:15.389Z,8.93
2022-11-19T03:47:46.774Z,8.83
2022-11-19T03:50:21.407Z,8.77
2022-11-19T03:52:50.508Z,9.03
2022-11-19T03:55:19.268Z,9.17
2022-11-19T03:57:47.665Z,8.30
2022-11-19T04:00:16.964Z,8.23
2022-11-19T04:02:45.329Z,8.13
2022-11-19T04:05:13.654Z,8.40
2022-11-19T04:07:43.525Z,9.37
2022-11-19T04:10:11.918Z,9.83
2022-11-19T04:12:40.296Z,9.40
2022-11-19T04:15:11.559Z,10.97
2022-11-19T04:17:39.990Z,12.60
2022-11-19T04:20:10.176Z,12.47
2022-11-19T04:22:38.585Z,11.97
2022-11-19T04:25:09.739Z,13.13
2022-11-19T04:27:38.084Z,13.30
2022-11-19T04:30:07.902Z,14.07
2022-11-19T04:32:36.219Z,13.40
2022-11-19T04:35:05.100Z,13.83
2022-11-19T04:37:33.499Z,15.67
2022-11-19T04:40:02.182Z,14.13
2022-11-19T04:42:32.006Z,14.23
2022-11-19T04:45:00.449Z,14.57
2022-11-19T04:47:29.033Z,14.03
2022-11-19T04:49:57.409Z,14.77
2022-11-19T04:52:25.790Z,14.00
2022-11-19T04:54:54.177Z,14.37
2022-11-19T04:57:22.617Z,12.83
2022-11-19T04:59:52.391Z,12.67
2022-11-19T05:02:20.809Z,12.43
2022-11-19T05:04:49.182Z,11.80
2022-11-19T05:07:17.521Z,13.00
2022-11-19T05:09:45.965Z,11.80
2022-11-19T05:12:14.327Z,12.93
2022-11-19T05:14:43.030Z,13.77
2022-11-19T05:17:12.812Z,13.80
2022-11-19T05:19:41.249Z,15.13
2022-11-19T05:22:09.627Z,14.67
2022-11-19T05:24:38.082Z,14.23
2022-11-19T05:27:06.539Z,14.40
2022-11-19T05:29:34.935Z,13.97
2022-11-19T05:32:03.332Z,14.30
2022-11-19T05:34:33.139Z,13.70
2022-11-19T05:37:01.589Z,13.33
2022-11-19T05:39:29.949Z,15.67
2022-11-19T05:41:58.470Z,13.37
2022-11-19T05:44:26.910Z,12.17
2022-11-19T05:46:56.939Z,12.07
2022-11-19T05:49:25.386Z,11.37
2022-11-19T05:51:55.136Z,10.73
2022-11-19T05:54:23.575Z,12.07
2022-11-19T05:56:52.056Z,11.20
2022-11-19T05:59:21.490Z,12.07
2022-11-19T06:01:50.202Z,13.10
2022-11-19T06:04:18.602Z,13.20
2022-11-19T06:06:47.055Z,13.57
2022-11-19T06:09:17.192Z,13.27
2022-11-19T06:11:51.569Z,13.97
2022-11-19T06:14:22.295Z,15.17
2022-11-19T06:16:51.522Z,14.53
2022-11-19T06:19:20.702Z,13.83
2022-11-19T06:21:49.705Z,16.20
2022-11-19T06:24:19.778Z,20.07
2022-11-19T06:26:48.145Z,20.97
2022-11-19T06:29:17.487Z,21.73
2022-11-19T06:31:46.622Z,28.07
2022-11-19T06:34:15.044Z,31.57
2022-11-19T06:36:47.809Z,25.67
2022-11-19T06:39:20.562Z,19.90
2022-11-19T06:41:50.209Z,21.60
2022-11-19T06:44:18.915Z,18.97
2022-11-19T06:46:47.269Z,18.83
2022-11-19T06:49:20.094Z,19.47
2022-11-19T06:51:49.018Z,20.43
2022-11-19T06:54:17.381Z,20.30
2022-11-19T06:56:47.414Z,19.87
2022-11-19T06:59:15.834Z,19.43
2022-11-19T07:01:44.262Z,20.87
2022-11-19T07:04:13.076Z,22.07
2022-11-19T07:06:41.435Z,20.20
2022-11-19T07:09:09.828Z,18.70
2022-11-19T07:11:38.230Z,19.00
2022-11-19T07:14:08.675Z,19.40
2022-11-19T07:16:38.551Z,20.93
2022-11-19T07:19:09.006Z,21.33
2022-11-19T07:21:37.875Z,23.93
2022-11-19T07:24:08.921Z,24.63
2022-11-19T07:26:38.054Z,26.93
2022-11-19T07:29:09.546Z,29.93
2022-11-19T07:31:37.992Z,28.07
2022-11-19T07:34:08.235Z,26.97
2022-11-19T07:36:36.950Z,30.93
2022-11-19T07:39:05.823Z,33.23
2022-11-19T07:41:51.337Z,30.50
2022-11-19T07:44:21.514Z,28.00
2022-11-19T07:46:49.941Z,23.97
2022-11-19T07:49:18.610Z,27.70
2022-11-19T07:51:47.381Z,30.03
2022-11-19T07:54:16.390Z,24.53
2022-11-19T07:56:45.128Z,33.10
2022-11-19T07:59:13.930Z,41.50
2022-11-19T08:01:43.735Z,30.90
2022-11-19T08:04:12.383Z,25.07
2022-11-19T08:06:40.833Z,28.40
2022-11-19T08:09:09.757Z,26.67
2022-11-19T08:11:38.475Z,22.60
2022-11-19T08:14:06.930Z,21.07
2022-11-19T08:16:52.640Z,22.37
2022-11-19T08:19:22.794Z,17.43
2022-11-19T08:21:51.750Z,15.87
2022-11-19T08:24:21.548Z,18.40
2022-11-19T08:26:50.912Z,16.73
2022-11-19T08:29:23.391Z,19.20
2022-11-19T08:31:52.554Z,16.30
2022-11-19T08:34:22.993Z,14.33
2022-11-19T08:36:51.756Z,13.90
2022-11-19T08:39:20.238Z,15.27
2022-11-19T08:42:05.858Z,14.57
2022-11-19T08:44:34.819Z,14.00
2022-11-19T08:47:03.211Z,16.33
2022-11-19T08:49:33.140Z,15.27
2022-11-19T08:52:01.531Z,16.40
2022-11-19T08:54:29.940Z,22.93
2022-11-19T08:56:58.323Z,16.07
2022-11-19T08:59:27.265Z,16.83
2022-11-19T09:01:55.758Z,14.57
2022-11-19T09:04:24.119Z,14.20
2022-11-19T09:06:53.963Z,14.20
2022-11-19T09:09:22.486Z,14.83
2022-11-19T09:11:50.899Z,13.10
2022-11-19T09:14:19.617Z,13.80
2022-11-19T09:16:48.319Z,13.00
2022-11-19T09:19:16.684Z,13.47
2022-11-19T09:21:45.089Z,12.13
2022-11-19T09:24:14.992Z,15.30
2022-11-19T09:26:44.820Z,13.47
2022-11-19T09:29:14.907Z,13.70
2022-11-19T09:31:43.254Z,12.50
2022-11-19T09:34:11.602Z,12.40
2022-11-19T09:36:40.004Z,14.13
2022-11-19T09:39:08.363Z,13.07
2022-11-19T09:41:45.380Z,12.80
2022-11-19T09:44:30.340Z,12.73
2022-11-19T09:47:06.260Z,13.47
2022-11-19T09:49:43.871Z,12.00
2022-11-19T09:52:15.622Z,13.47
2022-11-19T09:54:48.250Z,12.93
2022-11-19T09:57:25.591Z,12.53
2022-11-19T09:59:57.990Z,12.90
2022-11-19T10:02:26.544Z,14.17
2022-11-19T10:04:55.477Z,16.43
2022-11-19T10:07:34.480Z,14.43
2022-11-19T10:10:18.372Z,14.10
2022-11-19T10:13:13.624Z,14.13
2022-11-19T10:15:55.300Z,15.17
2022-11-19T10:18:32.566Z,15.70
2022-11-19T10:21:08.382Z,12.90
2022-11-19T10:23:48.731Z,15.10
2022-11-19T10:26:19.104Z,15.77
2022-11-19T10:28:56.586Z,17.03
2022-11-19T10:31:34.419Z,16.17
2022-11-19T10:34:12.662Z,14.03
2022-11-19T10:36:44.029Z,12.93
2022-11-19T10:39:22.962Z,13.63
2022-11-19T10:41:57.154Z,14.90
2022-11-19T10:44:41.506Z,14.67
2022-11-19T10:47:16.604Z,13.57
2022-11-19T10:49:45.543Z,12.57
2022-11-19T10:52:23.871Z,14.00
2022-11-19T10:54:54.648Z,14.13
2022-11-19T10:57:23.624Z,13.57
2022-11-19T10:59:55.265Z,14.37
2022-11-19T11:02:30.951Z,14.63
2022-11-19T11:05:09.407Z,13.60
2022-11-19T11:08:02.274Z,14.30
2022-11-19T11:10:48.600Z,12.03
2022-11-19T11:13:53.967Z,12.93
2022-11-19T11:16:26.928Z,13.13
2022-11-19T11:18:58.224Z,11.87
2022-11-19T11:21:33.672Z,12.50
2022-11-19T11:24:04.831Z,12.67
2022-11-19T11:26:35.466Z,11.90
2022-11-19T11:29:09.456Z,11.47
2022-11-19T11:31:42.802Z,11.30
2022-11-19T11:34:29.995Z,14.50
2022-11-19T11:37:00.378Z,11.77
2022-11-19T11:39:31.521Z,13.30
2022-11-19T11:42:06.008Z,11.73
2022-11-19T11:44:36.957Z,19.27
2022-11-19T11:47:14.533Z,7.53
2022-11-19T11:49:45.235Z,6.00
2022-11-19T11:52:22.814Z,6.87
2022-11-19T11:54:59.901Z,7.17
2022-11-19T11:57:30.433Z,7.63
2022-11-19T12:00:01.756Z,7.43
2022-11-19T12:02:33.304Z,7.70
2022-11-19T12:05:04.265Z,7.53
2022-11-19T12:07:58.398Z,8.97
2022-11-19T12:10:35.674Z,7.57
2022-11-19T12:13:38.769Z,9.57
2022-11-19T12:16:14.808Z,7.80
2022-11-19T12:18:59.354Z,7.33
2022-11-19T12:21:38.235Z,6.90
2022-11-19T12:24:29.702Z,6.03
2022-11-19T12:27:07.257Z,6.40
2022-11-19T12:29:42.870Z,6.13
2022-11-19T12:32:23.459Z,6.40
2022-11-19T12:35:17.468Z,6.33
2022-11-19T12:38:01.099Z,5.73
2022-11-19T12:40:42.586Z,6.83
2022-11-19T12:43:29.402Z,7.40
2022-11-19T12:46:06.585Z,9.93
2022-11-19T12:48:51.812Z,8.80
2022-11-19T12:51:35.277Z,9.57
2022-11-19T12:54:31.787Z,9.07
2022-11-19T12:57:16.079Z,10.73
2022-11-19T12:59:57.412Z,8.43
2022-11-19T13:02:30.113Z,7.87
2022-11-19T13:05:05.461Z,8.20
2022-11-19T13:07:39.079Z,12.10
2022-11-19T13:10:16.687Z,8.63
2022-11-19T13:12:51.364Z,6.63
2022-11-19T13:15:24.316Z,6.60
2022-11-19T13:17:55.800Z,9.13
2022-11-19T13:20:29.022Z,8.83
2022-11-19T13:23:04.334Z,8.77
2022-11-19T13:25:37.388Z,9.20
2022-11-19T13:28:16.048Z,8.53
2022-11-19T13:30:49.877Z,8.93
2022-11-19T13:33:24.328Z,9.37
2022-11-19T13:35:58.959Z,9.93
2022-11-19T13:38:38.159Z,9.23
2022-11-19T13:41:14.150Z,8.57
2022-11-19T13:44:00.285Z,7.77
2022-11-19T13:46:35.259Z,9.63
2022-11-19T13:49:06.728Z,8.33
2022-11-19T13:51:39.983Z,9.03
2022-11-19T13:54:11.025Z,8.80
2022-11-19T13:56:43.434Z,9.43
2022-11-19T13:59:28.962Z,9.00
2022-11-19T14:02:28.864Z,8.93
2022-11-19T14:05:30.909Z,8.07
2022-11-19T14:08:12.514Z,7.67
2022-11-19T14:10:47.353Z,7.57
2022-11-19T14:13:35.031Z,8.07
2022-11-19T14:16:34.069Z,8.07
2022-11-19T14:19:21.569Z,7.80
2022-11-19T14:22:09.768Z,7.20
2022-11-19T14:25:14.727Z,7.33
2022-11-19T14:27:45.761Z,7.53
2022-11-19T14:30:22.135Z,6.37
2022-11-19T14:32:53.389Z,6.30
2022-11-19T14:35:42.677Z,6.60
2022-11-19T14:38:32.506Z,6.80
2022-11-19T14:41:20.116Z,6.77
2022-11-19T14:44:17.546Z,7.23
2022-11-19T14:46:48.335Z,6.73
2022-11-19T14:49:31.304Z,7.33
2022-11-19T14:51:59.948Z,6.47
2022-11-19T14:54:41.190Z,6.70
2022-11-19T14:57:18.527Z,7.03
2022-11-19T14:59:53.384Z,7.80
2022-11-19T15:02:30.248Z,10.63
2022-11-19T15:05:03.202Z,9.00
2022-11-19T15:07:44.999Z,6.53
2022-11-19T15:10:33.174Z,8.37
2022-11-19T15:13:20.333Z,7.03
2022-11-19T15:15:54.019Z,6.77
2022-11-19T15:19:03.402Z,8.40
2022-11-19T15:22:01.525Z,8.20
2022-11-19T15:24:42.588Z,7.63
2022-11-19T15:27:20.763Z,9.30
2022-11-19T15:30:08.353Z,9.53
2022-11-19T15:33:04.894Z,8.67
2022-11-19T15:35:47.278Z,8.33
2022-11-19T15:38:31.005Z,7.77
2022-11-19T15:41:02.564Z,8.57
2022-11-19T15:43:36.232Z,8.83
2022-11-19T15:46:11.966Z,8.20
2022-11-19T15:48:52.887Z,9.17
2022-11-19T15:51:23.259Z,8.53
2022-11-19T15:54:01.807Z,9.57
2022-11-19T15:56:33.519Z,10.83
2022-11-19T15:59:03.351Z,8.40
2022-11-19T16:01:34.586Z,8.97
2022-11-19T16:04:10.266Z,8.50
2022-11-19T16:06:40.331Z,7.70
2022-11-19T16:09:08.966Z,8.77
2022-11-19T16:11:56.345Z,8.87
2022-11-19T16:14:45.341Z,9.03
2022-11-19T16:17:41.627Z,8.80
2022-11-19T16:20:24.286Z,8.57
2022-11-19T16:22:58.297Z,8.20
2022-11-19T16:25:35.793Z,8.07
2022-11-19T16:28:07.784Z,8.20
2022-11-19T16:30:46.481Z,9.50
2022-11-19T16:33:18.878Z,10.50
2022-11-19T16:35:52.904Z,10.13
2022-11-19T16:38:27.679Z,9.67
2022-11-19T16:41:14.241Z,9.70
2022-11-19T16:43:45.021Z,9.33
2022-11-19T16:46:16.994Z,9.80
2022-11-19T16:48:57.071Z,10.27
2022-11-19T16:51:39.078Z,10.40
2022-11-19T16:54:09.872Z,10.37
2022-11-19T16:56:44.140Z,10.30
2022-11-19T16:59:20.695Z,10.33
2022-11-19T17:01:58.833Z,10.73
2022-11-19T17:04:30.503Z,10.67
2022-11-19T17:07:00.805Z,12.00
2022-11-19T17:09:44.821Z,12.13
2022-11-19T17:12:27.702Z,11.50
2022-11-19T17:14:58.686Z,10.30
2022-11-19T17:17:34.408Z,11.37
2022-11-19T17:20:06.288Z,11.53
2022-11-19T17:22:38.040Z,10.67
2022-11-19T17:25:07.249Z,10.77
2022-11-19T17:27:37.746Z,10.07
2022-11-19T17:30:11.271Z,9.70
2022-11-19T17:32:42.398Z,10.43
2022-11-19T17:35:31.451Z,10.60
2022-11-19T17:38:02.124Z,10.20
2022-11-19T17:40:30.598Z,10.00
2022-11-19T17:43:16.190Z,10.13
2022-11-19T17:45:44.579Z,9.63
2022-11-19T17:48:20.119Z,9.47
2022-11-19T17:50:48.529Z,9.93
2022-11-19T17:53:18.427Z,10.23
2022-11-19T17:55:48.801Z,9.60
2022-11-19T17:58:17.384Z,11.37
2022-11-19T18:00:45.855Z,13.33
2022-11-19T18:03:14.906Z,10.33
2022-11-19T18:05:48.195Z,9.00
2022-11-19T18:08:18.273Z,9.57
2022-11-19T18:10:48.824Z,10.40
2022-11-19T18:13:22.069Z,10.37
2022-11-19T18:15:50.465Z,10.80
2022-11-19T18:18:18.888Z,9.80
2022-11-19T18:20:47.306Z,10.13
2022-11-19T18:23:15.763Z,9.70
2022-11-19T18:25:45.689Z,9.70
2022-11-19T18:28:14.076Z,10.90
2022-11-19T18:30:42.477Z,9.93
2022-11-19T18:33:11.142Z,9.93
2022-11-19T18:35:39.537Z,10.13
2022-11-19T18:38:07.920Z,10.27
2022-11-19T18:40:37.371Z,10.43
2022-11-19T18:43:24.299Z,10.30
2022-11-19T18:45:52.702Z,10.30
2022-11-19T18:48:21.256Z,10.10
2022-11-19T18:50:50.006Z,10.40
2022-11-19T18:53:18.403Z,10.13
2022-11-19T18:55:48.503Z,10.07
2022-11-19T18:58:18.389Z,11.63
2022-11-19T19:00:46.863Z,10.73
2022-11-19T19:03:15.650Z,10.10
2022-11-19T19:05:44.071Z,9.57
2022-11-19T19:08:13.593Z,11.07
2022-11-19T19:10:43.238Z,11.03
2022-11-19T19:13:10.507Z,12.27
2022-11-19T19:15:40.313Z,19.07
2022-11-19T19:18:08.708Z,12.07
2022-11-19T19:20:37.343Z,11.80
2022-11-19T19:23:05.717Z,11.73
2022-11-19T19:25:34.104Z,10.53
2022-11-19T19:28:02.450Z,11.57
2022-11-19T19:30:30.835Z,11.70
2022-11-19T19:33:00.591Z,11.60
2022-11-19T19:35:28.944Z,11.50
2022-11-19T19:37:57.457Z,11.00
2022-11-19T19:40:25.903Z,11.53
2022-11-19T19:42:55.665Z,12.17
2022-11-19T19:45:24.005Z,12.67
2022-11-19T19:47:52.390Z,12.67
2022-11-19T19:50:22.238Z,13.70
2022-11-19T19:52:50.642Z,18.00
2022-11-19T19:55:19.046Z,19.37
2022-11-19T19:57:47.493Z,17.40
2022-11-19T20:00:17.248Z,15.57
2022-11-19T20:02:45.646Z,16.43
2022-11-19T20:05:14.021Z,18.00
2022-11-19T20:07:43.825Z,26.90
2022-11-19T20:10:12.901Z,22.77
2022-11-19T20:12:58.891Z,20.43
2022-11-19T20:15:27.258Z,20.97
2022-11-19T20:17:55.659Z,20.73
2022-11-19T20:20:24.002Z,22.77
2022-11-19T20:22:54.102Z,18.67
2022-11-19T20:25:22.449Z,21.70
2022-11-19T20:27:50.869Z,22.90
2022-11-19T20:30:19.519Z,22.17
2022-11-19T20:32:48.865Z,20.23
2022-11-19T20:35:17.343Z,20.83
2022-11-19T20:37:45.740Z,20.10
2022-11-19T20:40:15.681Z,30.13
2022-11-19T20:43:03.500Z,26.97
2022-11-19T20:45:31.993Z,25.23
2022-11-19T20:48:00.786Z,25.53
2022-11-19T20:50:29.192Z,26.63
2022-11-19T20:52:57.550Z,24.50
2022-11-19T20:55:27.450Z,22.10
2022-11-19T20:57:57.352Z,24.00
2022-11-19T21:00:26.046Z,23.60
2022-11-19T21:02:55.020Z,32.90
2022-11-19T21:05:23.367Z,32.60
2022-11-19T21:07:51.722Z,32.33
2022-11-19T21:10:20.092Z,37.10
2022-11-19T21:13:02.747Z,39.83
2022-11-19T21:15:31.796Z,37.53
2022-11-19T21:18:00.372Z,37.17
2022-11-19T21:20:28.748Z,33.60
2022-11-19T21:22:57.304Z,35.20
2022-11-19T21:25:25.688Z,35.13
2022-11-19T21:27:56.700Z,33.30
2022-11-19T21:30:25.384Z,30.53
2022-11-19T21:32:53.961Z,30.97
2022-11-19T21:35:22.545Z,26.27
2022-11-19T21:37:50.913Z,24.73
2022-11-19T21:40:19.660Z,22.97
2022-11-19T21:42:48.261Z,22.63
2022-11-19T21:45:18.313Z,21.90
2022-11-19T21:47:46.854Z,21.80
2022-11-19T21:50:17.129Z,21.00
2022-11-19T21:52:45.668Z,18.70
2022-11-19T21:55:14.157Z,17.83
2022-11-19T21:57:42.517Z,16.13
2022-11-19T22:00:12.950Z,14.67
2022-11-19T22:02:43.095Z,16.17
2022-11-19T22:05:11.687Z,17.50
2022-11-19T22:07:40.126Z,17.30
2022-11-19T22:10:09.321Z,16.50
2022-11-19T22:12:37.805Z,17.27
2022-11-19T22:15:06.893Z,16.70
2022-11-19T22:17:35.341Z,16.93
2022-11-19T22:20:05.913Z,15.93
2022-11-19T22:22:34.343Z,16.67
2022-11-19T22:25:03.291Z,17.30
2022-11-19T22:27:31.677Z,15.17
2022-11-19T22:30:04.533Z,16.13
2022-11-19T22:32:34.468Z,20.20
2022-11-19T22:35:02.837Z,17.63
2022-11-19T22:37:32.677Z,16.83
2022-11-19T22:40:01.193Z,15.43
2022-11-19T22:42:29.639Z,16.20
2022-11-19T22:44:57.971Z,14.43
2022-11-19T22:47:26.301Z,15.20
2022-11-19T22:49:54.663Z,16.30
2022-11-19T22:52:23.193Z,16.50
2022-11-19T22:54:52.992Z,16.53
2022-11-19T22:57:21.397Z,16.33
2022-11-19T22:59:49.716Z,16.90
2022-11-19T23:02:18.093Z,16.67
2022-11-19T23:04:46.437Z,16.73
2022-11-19T23:07:14.824Z,17.17
2022-11-19T23:09:43.288Z,16.23
2022-11-19T23:12:30.257Z,15.03
2022-11-19T23:14:58.604Z,16.73
2022-11-19T23:17:26.962Z,16.53
2022-11-19T23:19:56.564Z,17.70
2022-11-19T23:22:27.563Z,17.70
2022-11-19T23:24:55.914Z,19.47
2022-11-19T23:27:25.671Z,22.23
2022-11-19T23:29:54.043Z,19.80
2022-11-19T23:32:22.408Z,21.13
2022-11-19T23:34:50.792Z,22.03
2022-11-19T23:37:19.394Z,20.77
2022-11-19T23:39:47.739Z,21.27
2022-11-19T23:42:16.177Z,21.23
2022-11-19T23:44:45.892Z,22.27
2022-11-19T23:47:14.488Z,24.33
2022-11-19T23:49:42.905Z,40.07
2022-11-19T23:52:11.367Z,39.67
2022-11-19T23:54:39.822Z,36.30
2022-11-19T23:57:08.223Z,34.20
2022-11-19T23:59:37.073Z,36.20
